Clarksboro, New Jersey
Current Conditions -  °F | °C
As of 4:15 AM on Wednesday 22 Oct 2014 (Local Time) from KPHL Reporting Station
Overcast Overcast  
Wind Chill: 14°   Ceiling: 1500
Heat Index: 14°   Visibility: 10mi
Dew Point: 10°   Wind: 15mph
Humidity: 77%   Direction: 10°N
Pressure: 29.84"   Gusts: NA
Location:  39.8°N, 75.22°W
Report Text: KPHL 220815Z 01013KT 10SM BKN015 BKN026 OVC040 14/10 A2984 RMK AO2 T01390100 $
Loading
Personal Weather Stations






























Interactive Weather Map
Tropical Storm Tracking
New forecast layout! Learn more

10-Day Weather Forecast

Advertisements
Track Severe Weather on mobile